sensor_id;sensor_type;location;lat;lon;timestamp;P1;durP1;ratioP1;P2;durP2;ratioP2
42682;SDS011;28293;50.930;3.464;2022-10-26T00:02:18;8.98;;;2.97;;
42682;SDS011;28293;50.930;3.464;2022-10-26T00:04:44;12.40;;;3.53;;
42682;SDS011;28293;50.930;3.464;2022-10-26T00:07:09;9.32;;;2.67;;
42682;SDS011;28293;50.930;3.464;2022-10-26T00:09:35;9.38;;;3.08;;
42682;SDS011;28293;50.930;3.464;2022-10-26T00:12:01;10.57;;;3.47;;
42682;SDS011;28293;50.930;3.464;2022-10-26T00:14:27;9.05;;;2.92;;
42682;SDS011;28293;50.930;3.464;2022-10-26T00:16:53;7.32;;;2.67;;
42682;SDS011;28293;50.930;3.464;2022-10-26T00:19:19;8.50;;;3.03;;
42682;SDS011;28293;50.930;3.464;2022-10-26T00:21:45;6.95;;;2.85;;
42682;SDS011;28293;50.930;3.464;2022-10-26T00:24:10;6.40;;;2.20;;
42682;SDS011;28293;50.930;3.464;2022-10-26T00:26:37;9.57;;;2.90;;
42682;SDS011;28293;50.930;3.464;2022-10-26T00:29:03;8.80;;;2.97;;
42682;SDS011;28293;50.930;3.464;2022-10-26T00:31:29;6.55;;;2.45;;
42682;SDS011;28293;50.930;3.464;2022-10-26T00:33:55;6.68;;;2.25;;
42682;SDS011;28293;50.930;3.464;2022-10-26T00:36:21;8.02;;;2.83;;
42682;SDS011;28293;50.930;3.464;2022-10-26T00:38:49;8.32;;;2.80;;
42682;SDS011;28293;50.930;3.464;2022-10-26T00:41:16;8.25;;;2.30;;
42682;SDS011;28293;50.930;3.464;2022-10-26T00:43:43;6.45;;;2.20;;
42682;SDS011;28293;50.930;3.464;2022-10-26T00:46:14;8.50;;;2.80;;
42682;SDS011;28293;50.930;3.464;2022-10-26T00:48:45;8.65;;;2.80;;
42682;SDS011;28293;50.930;3.464;2022-10-26T00:51:16;9.13;;;3.13;;
42682;SDS011;28293;50.930;3.464;2022-10-26T00:53:49;6.80;;;2.40;;
42682;SDS011;28293;50.930;3.464;2022-10-26T00:56:15;9.70;;;2.63;;
42682;SDS011;28293;50.930;3.464;2022-10-26T00:58:42;8.23;;;2.72;;
42682;SDS011;28293;50.930;3.464;2022-10-26T01:01:08;9.30;;;2.53;;
42682;SDS011;28293;50.930;3.464;2022-10-26T01:03:34;10.07;;;2.75;;
42682;SDS011;28293;50.930;3.464;2022-10-26T01:06:00;6.13;;;2.50;;
42682;SDS011;28293;50.930;3.464;2022-10-26T01:08:28;9.57;;;2.53;;
42682;SDS011;28293;50.930;3.464;2022-10-26T01:10:55;8.88;;;3.13;;
42682;SDS011;28293;50.930;3.464;2022-10-26T01:13:22;7.10;;;2.30;;
42682;SDS011;28293;50.930;3.464;2022-10-26T01:15:59;10.40;;;2.88;;
42682;SDS011;28293;50.930;3.464;2022-10-26T01:18:44;5.63;;;2.47;;
42682;SDS011;28293;50.930;3.464;2022-10-26T01:27:18;10.40;;;2.75;;
42682;SDS011;28293;50.930;3.464;2022-10-26T01:37:41;9.55;;;2.72;;
42682;SDS011;28293;50.930;3.464;2022-10-26T01:40:16;5.60;;;2.53;;
42682;SDS011;28293;50.930;3.464;2022-10-26T01:42:50;7.80;;;2.20;;
42682;SDS011;28293;50.930;3.464;2022-10-26T01:45:18;11.32;;;2.50;;
42682;SDS011;28293;50.930;3.464;2022-10-26T01:47:45;11.15;;;2.50;;
42682;SDS011;28293;50.930;3.464;2022-10-26T01:50:12;7.32;;;2.47;;
42682;SDS011;28293;50.930;3.464;2022-10-26T01:52:38;7.25;;;2.47;;
42682;SDS011;28293;50.930;3.464;2022-10-26T01:55:06;8.73;;;2.70;;
42682;SDS011;28293;50.930;3.464;2022-10-26T01:57:53;8.25;;;2.60;;
42682;SDS011;28293;50.930;3.464;2022-10-26T02:00:23;7.80;;;2.40;;
42682;SDS011;28293;50.930;3.464;2022-10-26T02:13:19;6.63;;;2.53;;
42682;SDS011;28293;50.930;3.464;2022-10-26T02:19:02;8.00;;;2.88;;
42682;SDS011;28293;50.930;3.464;2022-10-26T02:21:36;9.57;;;2.67;;
42682;SDS011;28293;50.930;3.464;2022-10-26T02:24:05;9.75;;;2.85;;
42682;SDS011;28293;50.930;3.464;2022-10-26T02:26:32;8.48;;;2.92;;
42682;SDS011;28293;50.930;3.464;2022-10-26T02:29:01;5.55;;;2.42;;
42682;SDS011;28293;50.930;3.464;2022-10-26T02:31:29;7.82;;;2.67;;
42682;SDS011;28293;50.930;3.464;2022-10-26T02:33:56;7.35;;;2.35;;
42682;SDS011;28293;50.930;3.464;2022-10-26T02:36:24;6.63;;;2.30;;
42682;SDS011;28293;50.930;3.464;2022-10-26T02:38:53;7.93;;;2.63;;
42682;SDS011;28293;50.930;3.464;2022-10-26T02:41:21;7.07;;;2.83;;
42682;SDS011;28293;50.930;3.464;2022-10-26T02:43:52;6.72;;;2.53;;
42682;SDS011;28293;50.930;3.464;2022-10-26T02:46:23;6.75;;;2.30;;
42682;SDS011;28293;50.930;3.464;2022-10-26T02:48:51;8.23;;;2.45;;
42682;SDS011;28293;50.930;3.464;2022-10-26T02:51:19;6.57;;;2.47;;
42682;SDS011;28293;50.930;3.464;2022-10-26T02:53:53;6.93;;;2.65;;
42682;SDS011;28293;50.930;3.464;2022-10-26T02:59:08;7.63;;;2.42;;
42682;SDS011;28293;50.930;3.464;2022-10-26T03:01:36;8.10;;;2.75;;
42682;SDS011;28293;50.930;3.464;2022-10-26T03:04:02;7.07;;;2.20;;
42682;SDS011;28293;50.930;3.464;2022-10-26T03:06:28;7.07;;;2.42;;
42682;SDS011;28293;50.930;3.464;2022-10-26T03:08:54;5.82;;;2.22;;
42682;SDS011;28293;50.930;3.464;2022-10-26T03:11:19;7.85;;;2.20;;
42682;SDS011;28293;50.930;3.464;2022-10-26T03:13:45;7.70;;;2.65;;
42682;SDS011;28293;50.930;3.464;2022-10-26T03:16:11;8.10;;;2.28;;
42682;SDS011;28293;50.930;3.464;2022-10-26T03:18:37;7.38;;;2.70;;
42682;SDS011;28293;50.930;3.464;2022-10-26T03:21:02;6.53;;;2.60;;
42682;SDS011;28293;50.930;3.464;2022-10-26T03:23:28;7.53;;;2.55;;
42682;SDS011;28293;50.930;3.464;2022-10-26T03:25:57;4.55;;;2.10;;
42682;SDS011;28293;50.930;3.464;2022-10-26T03:28:23;7.70;;;2.60;;
42682;SDS011;28293;50.930;3.464;2022-10-26T03:30:48;7.78;;;2.42;;
42682;SDS011;28293;50.930;3.464;2022-10-26T03:33:14;7.22;;;2.50;;
42682;SDS011;28293;50.930;3.464;2022-10-26T03:35:40;6.40;;;2.47;;
42682;SDS011;28293;50.930;3.464;2022-10-26T03:38:05;6.53;;;2.30;;
42682;SDS011;28293;50.930;3.464;2022-10-26T03:40:31;8.10;;;2.45;;
42682;SDS011;28293;50.930;3.464;2022-10-26T03:42:56;8.35;;;2.20;;
42682;SDS011;28293;50.930;3.464;2022-10-26T03:45:22;6.80;;;2.40;;
42682;SDS011;28293;50.930;3.464;2022-10-26T03:47:48;5.63;;;2.35;;
42682;SDS011;28293;50.930;3.464;2022-10-26T03:50:15;7.43;;;2.38;;
42682;SDS011;28293;50.930;3.464;2022-10-26T03:52:43;9.30;;;2.25;;
42682;SDS011;28293;50.930;3.464;2022-10-26T03:55:10;4.90;;;2.03;;
42682;SDS011;28293;50.930;3.464;2022-10-26T03:57:39;6.15;;;2.35;;
42682;SDS011;28293;50.930;3.464;2022-10-26T04:00:06;6.60;;;2.20;;
42682;SDS011;28293;50.930;3.464;2022-10-26T04:02:32;8.93;;;2.67;;
42682;SDS011;28293;50.930;3.464;2022-10-26T04:04:57;12.98;;;3.50;;
42682;SDS011;28293;50.930;3.464;2022-10-26T04:07:23;6.95;;;2.50;;
42682;SDS011;28293;50.930;3.464;2022-10-26T04:09:48;10.85;;;2.55;;
42682;SDS011;28293;50.930;3.464;2022-10-26T04:12:14;5.97;;;2.22;;
42682;SDS011;28293;50.930;3.464;2022-10-26T04:14:40;8.63;;;2.50;;
42682;SDS011;28293;50.930;3.464;2022-10-26T04:17:05;7.75;;;2.15;;
42682;SDS011;28293;50.930;3.464;2022-10-26T04:19:31;7.43;;;2.70;;
42682;SDS011;28293;50.930;3.464;2022-10-26T04:21:57;6.43;;;2.10;;
42682;SDS011;28293;50.930;3.464;2022-10-26T04:24:22;5.60;;;2.65;;
42682;SDS011;28293;50.930;3.464;2022-10-26T04:26:48;9.35;;;2.67;;
42682;SDS011;28293;50.930;3.464;2022-10-26T04:29:13;6.80;;;2.28;;
42682;SDS011;28293;50.930;3.464;2022-10-26T04:31:39;5.65;;;2.30;;
42682;SDS011;28293;50.930;3.464;2022-10-26T04:34:05;5.05;;;2.10;;
42682;SDS011;28293;50.930;3.464;2022-10-26T04:36:31;10.90;;;2.70;;
42682;SDS011;28293;50.930;3.464;2022-10-26T04:38:58;7.25;;;2.42;;
42682;SDS011;28293;50.930;3.464;2022-10-26T04:41:24;7.13;;;2.22;;
42682;SDS011;28293;50.930;3.464;2022-10-26T04:43:49;5.25;;;2.40;;
42682;SDS011;28293;50.930;3.464;2022-10-26T04:46:15;7.05;;;2.60;;
42682;SDS011;28293;50.930;3.464;2022-10-26T04:48:40;8.25;;;2.50;;
42682;SDS011;28293;50.930;3.464;2022-10-26T04:51:06;7.65;;;2.53;;
42682;SDS011;28293;50.930;3.464;2022-10-26T04:53:32;12.05;;;3.38;;
42682;SDS011;28293;50.930;3.464;2022-10-26T04:55:58;5.80;;;2.58;;
42682;SDS011;28293;50.930;3.464;2022-10-26T04:58:25;8.75;;;2.35;;
42682;SDS011;28293;50.930;3.464;2022-10-26T05:00:51;8.82;;;2.63;;
42682;SDS011;28293;50.930;3.464;2022-10-26T05:03:17;6.07;;;2.55;;
42682;SDS011;28293;50.930;3.464;2022-10-26T05:05:43;6.90;;;2.55;;
42682;SDS011;28293;50.930;3.464;2022-10-26T05:08:08;7.78;;;2.95;;
42682;SDS011;28293;50.930;3.464;2022-10-26T05:10:34;6.18;;;2.75;;
42682;SDS011;28293;50.930;3.464;2022-10-26T05:13:00;6.65;;;2.30;;
42682;SDS011;28293;50.930;3.464;2022-10-26T05:15:26;8.73;;;2.83;;
42682;SDS011;28293;50.930;3.464;2022-10-26T05:17:56;8.13;;;2.50;;
42682;SDS011;28293;50.930;3.464;2022-10-26T05:20:23;8.98;;;2.60;;
42682;SDS011;28293;50.930;3.464;2022-10-26T05:22:55;7.85;;;2.85;;
42682;SDS011;28293;50.930;3.464;2022-10-26T05:25:21;12.32;;;3.42;;
42682;SDS011;28293;50.930;3.464;2022-10-26T05:27:47;7.65;;;3.17;;
42682;SDS011;28293;50.930;3.464;2022-10-26T05:30:13;7.28;;;2.63;;
42682;SDS011;28293;50.930;3.464;2022-10-26T05:32:38;11.02;;;3.05;;
42682;SDS011;28293;50.930;3.464;2022-10-26T05:35:04;9.25;;;2.33;;
42682;SDS011;28293;50.930;3.464;2022-10-26T05:37:30;8.48;;;3.20;;
42682;SDS011;28293;50.930;3.464;2022-10-26T05:39:56;8.68;;;2.90;;
42682;SDS011;28293;50.930;3.464;2022-10-26T05:42:21;10.93;;;3.22;;
42682;SDS011;28293;50.930;3.464;2022-10-26T05:44:47;7.35;;;3.10;;
42682;SDS011;28293;50.930;3.464;2022-10-26T05:47:13;7.95;;;2.85;;
42682;SDS011;28293;50.930;3.464;2022-10-26T05:49:38;7.50;;;2.92;;
42682;SDS011;28293;50.930;3.464;2022-10-26T05:52:04;9.60;;;3.03;;
42682;SDS011;28293;50.930;3.464;2022-10-26T05:54:29;6.57;;;2.50;;
42682;SDS011;28293;50.930;3.464;2022-10-26T05:56:55;10.68;;;2.92;;
42682;SDS011;28293;50.930;3.464;2022-10-26T05:59:21;10.73;;;3.50;;
42682;SDS011;28293;50.930;3.464;2022-10-26T06:04:43;11.13;;;3.75;;
42682;SDS011;28293;50.930;3.464;2022-10-26T06:07:18;10.63;;;2.88;;
42682;SDS011;28293;50.930;3.464;2022-10-26T06:09:45;9.20;;;3.53;;
42682;SDS011;28293;50.930;3.464;2022-10-26T06:12:12;9.95;;;3.50;;
42682;SDS011;28293;50.930;3.464;2022-10-26T06:14:38;9.98;;;3.60;;
42682;SDS011;28293;50.930;3.464;2022-10-26T06:30:47;10.18;;;3.35;;
42682;SDS011;28293;50.930;3.464;2022-10-26T06:33:13;8.98;;;3.92;;
42682;SDS011;28293;50.930;3.464;2022-10-26T06:38:10;9.52;;;3.17;;
42682;SDS011;28293;50.930;3.464;2022-10-26T06:40:39;12.20;;;3.75;;
42682;SDS011;28293;50.930;3.464;2022-10-26T06:43:12;9.60;;;3.22;;
42682;SDS011;28293;50.930;3.464;2022-10-26T06:45:47;9.48;;;3.60;;
42682;SDS011;28293;50.930;3.464;2022-10-26T06:48:25;10.68;;;3.67;;
42682;SDS011;28293;50.930;3.464;2022-10-26T06:50:53;13.52;;;3.70;;
42682;SDS011;28293;50.930;3.464;2022-10-26T06:53:32;12.13;;;4.05;;
42682;SDS011;28293;50.930;3.464;2022-10-26T06:56:04;8.25;;;3.83;;
42682;SDS011;28293;50.930;3.464;2022-10-26T06:58:34;9.18;;;3.63;;
42682;SDS011;28293;50.930;3.464;2022-10-26T07:01:01;9.32;;;3.60;;
42682;SDS011;28293;50.930;3.464;2022-10-26T07:03:27;9.38;;;3.50;;
42682;SDS011;28293;50.930;3.464;2022-10-26T07:05:52;9.65;;;4.20;;
42682;SDS011;28293;50.930;3.464;2022-10-26T07:08:18;10.85;;;4.20;;
42682;SDS011;28293;50.930;3.464;2022-10-26T07:10:45;9.48;;;3.92;;
42682;SDS011;28293;50.930;3.464;2022-10-26T07:13:11;12.18;;;4.28;;
42682;SDS011;28293;50.930;3.464;2022-10-26T07:15:37;8.25;;;3.80;;
42682;SDS011;28293;50.930;3.464;2022-10-26T07:18:04;8.40;;;4.20;;
42682;SDS011;28293;50.930;3.464;2022-10-26T07:20:31;10.05;;;4.15;;
42682;SDS011;28293;50.930;3.464;2022-10-26T07:23:00;10.55;;;4.10;;
42682;SDS011;28293;50.930;3.464;2022-10-26T07:25:27;10.07;;;3.92;;
42682;SDS011;28293;50.930;3.464;2022-10-26T07:27:56;7.22;;;3.55;;
42682;SDS011;28293;50.930;3.464;2022-10-26T07:30:23;6.47;;;3.33;;
42682;SDS011;28293;50.930;3.464;2022-10-26T07:33:03;10.65;;;4.07;;
42682;SDS011;28293;50.930;3.464;2022-10-26T07:35:34;12.90;;;4.75;;
42682;SDS011;28293;50.930;3.464;2022-10-26T07:38:00;11.13;;;3.70;;
42682;SDS011;28293;50.930;3.464;2022-10-26T07:40:26;10.60;;;4.05;;
42682;SDS011;28293;50.930;3.464;2022-10-26T07:42:55;10.40;;;4.00;;
42682;SDS011;28293;50.930;3.464;2022-10-26T07:45:22;11.13;;;4.13;;
42682;SDS011;28293;50.930;3.464;2022-10-26T07:47:48;10.82;;;3.58;;
42682;SDS011;28293;50.930;3.464;2022-10-26T07:50:15;10.85;;;3.88;;
42682;SDS011;28293;50.930;3.464;2022-10-26T07:52:41;10.65;;;3.67;;
42682;SDS011;28293;50.930;3.464;2022-10-26T07:55:10;11.05;;;4.68;;
42682;SDS011;28293;50.930;3.464;2022-10-26T07:57:37;9.10;;;3.85;;
42682;SDS011;28293;50.930;3.464;2022-10-26T08:00:03;12.13;;;3.88;;
42682;SDS011;28293;50.930;3.464;2022-10-26T08:02:31;11.00;;;3.88;;
42682;SDS011;28293;50.930;3.464;2022-10-26T08:04:57;7.95;;;3.88;;
42682;SDS011;28293;50.930;3.464;2022-10-26T08:07:23;14.07;;;3.83;;
42682;SDS011;28293;50.930;3.464;2022-10-26T08:09:50;11.55;;;3.53;;
42682;SDS011;28293;50.930;3.464;2022-10-26T08:12:16;9.30;;;3.60;;
42682;SDS011;28293;50.930;3.464;2022-10-26T08:14:43;8.48;;;3.90;;
42682;SDS011;28293;50.930;3.464;2022-10-26T08:17:09;9.05;;;3.90;;
42682;SDS011;28293;50.930;3.464;2022-10-26T08:19:34;11.98;;;4.00;;
42682;SDS011;28293;50.930;3.464;2022-10-26T08:22:00;8.27;;;3.40;;
42682;SDS011;28293;50.930;3.464;2022-10-26T08:24:26;9.77;;;3.88;;
42682;SDS011;28293;50.930;3.464;2022-10-26T08:26:52;10.27;;;3.55;;
42682;SDS011;28293;50.930;3.464;2022-10-26T08:29:18;9.70;;;3.95;;
42682;SDS011;28293;50.930;3.464;2022-10-26T08:31:43;8.20;;;3.70;;
42682;SDS011;28293;50.930;3.464;2022-10-26T08:34:11;7.63;;;3.58;;
42682;SDS011;28293;50.930;3.464;2022-10-26T08:36:37;10.25;;;3.92;;
42682;SDS011;28293;50.930;3.464;2022-10-26T08:39:03;8.88;;;3.45;;
42682;SDS011;28293;50.930;3.464;2022-10-26T08:44:07;10.20;;;4.18;;
42682;SDS011;28293;50.930;3.464;2022-10-26T08:47:19;12.07;;;4.13;;
42682;SDS011;28293;50.930;3.464;2022-10-26T08:52:40;9.27;;;3.47;;
42682;SDS011;28293;50.930;3.464;2022-10-26T08:55:18;11.95;;;4.38;;
42682;SDS011;28293;50.930;3.464;2022-10-26T08:57:49;10.68;;;4.10;;
42682;SDS011;28293;50.930;3.464;2022-10-26T09:00:20;8.27;;;3.42;;
42682;SDS011;28293;50.930;3.464;2022-10-26T09:02:50;9.43;;;3.60;;
42682;SDS011;28293;50.930;3.464;2022-10-26T09:05:18;9.77;;;2.92;;
42682;SDS011;28293;50.930;3.464;2022-10-26T09:10:39;12.70;;;3.42;;
42682;SDS011;28293;50.930;3.464;2022-10-26T09:21:27;7.30;;;2.70;;
42682;SDS011;28293;50.930;3.464;2022-10-26T09:27:03;7.95;;;2.42;;
42682;SDS011;28293;50.930;3.464;2022-10-26T09:29:50;7.15;;;2.90;;
42682;SDS011;28293;50.930;3.464;2022-10-26T09:32:17;7.25;;;3.08;;
42682;SDS011;28293;50.930;3.464;2022-10-26T09:34:47;10.45;;;2.80;;
42682;SDS011;28293;50.930;3.464;2022-10-26T09:45:33;10.10;;;2.90;;
42682;SDS011;28293;50.930;3.464;2022-10-26T09:48:05;8.60;;;2.63;;
42682;SDS011;28293;50.930;3.464;2022-10-26T09:50:42;7.85;;;2.50;;
42682;SDS011;28293;50.930;3.464;2022-10-26T09:53:11;7.93;;;2.60;;
42682;SDS011;28293;50.930;3.464;2022-10-26T09:55:40;7.95;;;2.65;;
42682;SDS011;28293;50.930;3.464;2022-10-26T09:58:13;9.13;;;2.92;;
42682;SDS011;28293;50.930;3.464;2022-10-26T10:00:51;10.15;;;2.58;;
42682;SDS011;28293;50.930;3.464;2022-10-26T10:03:19;7.57;;;2.60;;
42682;SDS011;28293;50.930;3.464;2022-10-26T10:05:49;7.30;;;2.55;;
42682;SDS011;28293;50.930;3.464;2022-10-26T10:08:21;7.22;;;2.17;;
42682;SDS011;28293;50.930;3.464;2022-10-26T10:10:52;8.70;;;3.22;;
42682;SDS011;28293;50.930;3.464;2022-10-26T10:13:22;8.18;;;2.50;;
42682;SDS011;28293;50.930;3.464;2022-10-26T10:15:51;7.93;;;2.20;;
42682;SDS011;28293;50.930;3.464;2022-10-26T10:18:19;8.95;;;2.67;;
42682;SDS011;28293;50.930;3.464;2022-10-26T10:20:50;9.35;;;2.25;;
42682;SDS011;28293;50.930;3.464;2022-10-26T10:23:28;7.20;;;2.28;;
42682;SDS011;28293;50.930;3.464;2022-10-26T10:26:00;10.23;;;2.65;;
42682;SDS011;28293;50.930;3.464;2022-10-26T10:28:30;6.65;;;2.30;;
42682;SDS011;28293;50.930;3.464;2022-10-26T10:30:58;12.07;;;2.97;;
42682;SDS011;28293;50.930;3.464;2022-10-26T10:33:33;8.23;;;2.20;;
42682;SDS011;28293;50.930;3.464;2022-10-26T10:36:17;8.68;;;2.30;;
42682;SDS011;28293;50.930;3.464;2022-10-26T10:38:49;9.13;;;2.80;;
42682;SDS011;28293;50.930;3.464;2022-10-26T10:41:29;8.13;;;2.20;;
42682;SDS011;28293;50.930;3.464;2022-10-26T10:46:40;7.90;;;2.38;;
42682;SDS011;28293;50.930;3.464;2022-10-26T10:49:15;6.55;;;2.05;;
42682;SDS011;28293;50.930;3.464;2022-10-26T10:51:48;10.95;;;2.95;;
42682;SDS011;28293;50.930;3.464;2022-10-26T10:54:36;8.13;;;2.17;;
42682;SDS011;28293;50.930;3.464;2022-10-26T10:57:11;8.07;;;2.03;;
42682;SDS011;28293;50.930;3.464;2022-10-26T11:00:05;8.77;;;2.60;;
42682;SDS011;28293;50.930;3.464;2022-10-26T11:02:50;8.32;;;2.53;;
42682;SDS011;28293;50.930;3.464;2022-10-26T11:05:21;8.25;;;2.60;;
42682;SDS011;28293;50.930;3.464;2022-10-26T11:08:08;8.27;;;2.30;;
42682;SDS011;28293;50.930;3.464;2022-10-26T11:10:46;7.60;;;2.35;;
42682;SDS011;28293;50.930;3.464;2022-10-26T11:13:23;5.95;;;2.35;;
42682;SDS011;28293;50.930;3.464;2022-10-26T11:16:03;9.95;;;2.25;;
42682;SDS011;28293;50.930;3.464;2022-10-26T11:21:13;9.77;;;2.50;;
42682;SDS011;28293;50.930;3.464;2022-10-26T11:23:49;8.68;;;2.40;;
42682;SDS011;28293;50.930;3.464;2022-10-26T11:26:38;6.57;;;2.20;;
42682;SDS011;28293;50.930;3.464;2022-10-26T11:29:16;6.50;;;2.10;;
42682;SDS011;28293;50.930;3.464;2022-10-26T11:31:50;6.28;;;2.00;;
42682;SDS011;28293;50.930;3.464;2022-10-26T11:34:30;6.78;;;2.22;;
42682;SDS011;28293;50.930;3.464;2022-10-26T11:37:09;8.85;;;2.20;;
42682;SDS011;28293;50.930;3.464;2022-10-26T11:39:44;7.03;;;2.20;;
42682;SDS011;28293;50.930;3.464;2022-10-26T11:47:45;11.32;;;2.88;;
42682;SDS011;28293;50.930;3.464;2022-10-26T11:50:20;8.20;;;2.40;;
42682;SDS011;28293;50.930;3.464;2022-10-26T11:55:26;8.18;;;2.40;;
42682;SDS011;28293;50.930;3.464;2022-10-26T11:57:53;9.32;;;2.10;;
42682;SDS011;28293;50.930;3.464;2022-10-26T12:00:19;8.63;;;2.13;;
42682;SDS011;28293;50.930;3.464;2022-10-26T12:02:51;8.63;;;2.33;;
42682;SDS011;28293;50.930;3.464;2022-10-26T12:11:16;10.05;;;2.35;;
42682;SDS011;28293;50.930;3.464;2022-10-26T12:21:59;6.07;;;2.00;;
42682;SDS011;28293;50.930;3.464;2022-10-26T12:24:26;8.68;;;2.03;;
42682;SDS011;28293;50.930;3.464;2022-10-26T12:27:01;7.25;;;1.80;;
42682;SDS011;28293;50.930;3.464;2022-10-26T12:29:30;7.32;;;2.25;;
42682;SDS011;28293;50.930;3.464;2022-10-26T12:32:00;7.22;;;2.00;;
42682;SDS011;28293;50.930;3.464;2022-10-26T12:47:03;6.70;;;1.95;;
42682;SDS011;28293;50.930;3.464;2022-10-26T12:58:01;7.07;;;2.10;;
42682;SDS011;28293;50.930;3.464;2022-10-26T13:00:45;9.50;;;2.13;;
42682;SDS011;28293;50.930;3.464;2022-10-26T13:03:55;6.60;;;2.13;;
42682;SDS011;28293;50.930;3.464;2022-10-26T13:06:35;6.88;;;2.05;;
42682;SDS011;28293;50.930;3.464;2022-10-26T13:09:13;10.90;;;2.70;;
42682;SDS011;28293;50.930;3.464;2022-10-26T13:11:51;6.85;;;2.20;;
42682;SDS011;28293;50.930;3.464;2022-10-26T13:14:21;6.63;;;1.77;;
42682;SDS011;28293;50.930;3.464;2022-10-26T13:16:48;8.88;;;2.30;;
42682;SDS011;28293;50.930;3.464;2022-10-26T13:19:47;8.27;;;2.10;;
42682;SDS011;28293;50.930;3.464;2022-10-26T13:22:16;5.95;;;1.75;;
42682;SDS011;28293;50.930;3.464;2022-10-26T13:24:50;8.00;;;1.83;;
42682;SDS011;28293;50.930;3.464;2022-10-26T13:32:28;9.32;;;1.88;;
42682;SDS011;28293;50.930;3.464;2022-10-26T13:34:58;7.53;;;1.83;;
42682;SDS011;28293;50.930;3.464;2022-10-26T13:37:26;5.22;;;1.65;;
42682;SDS011;28293;50.930;3.464;2022-10-26T13:39:55;7.43;;;1.92;;
42682;SDS011;28293;50.930;3.464;2022-10-26T13:42:27;7.47;;;1.92;;
42682;SDS011;28293;50.930;3.464;2022-10-26T13:45:07;7.72;;;1.75;;
42682;SDS011;28293;50.930;3.464;2022-10-26T13:47:45;8.57;;;1.95;;
42682;SDS011;28293;50.930;3.464;2022-10-26T13:50:26;10.07;;;2.20;;
42682;SDS011;28293;50.930;3.464;2022-10-26T13:52:58;7.32;;;2.03;;
42682;SDS011;28293;50.930;3.464;2022-10-26T13:55:32;7.10;;;1.63;;
42682;SDS011;28293;50.930;3.464;2022-10-26T13:58:24;6.78;;;1.80;;
42682;SDS011;28293;50.930;3.464;2022-10-26T14:01:20;5.28;;;1.70;;
42682;SDS011;28293;50.930;3.464;2022-10-26T14:03:48;7.82;;;1.90;;
42682;SDS011;28293;50.930;3.464;2022-10-26T14:08:44;8.93;;;1.88;;
42682;SDS011;28293;50.930;3.464;2022-10-26T14:11:15;8.52;;;2.17;;
42682;SDS011;28293;50.930;3.464;2022-10-26T14:13:44;5.32;;;1.75;;
42682;SDS011;28293;50.930;3.464;2022-10-26T14:16:12;8.63;;;2.05;;
42682;SDS011;28293;50.930;3.464;2022-10-26T14:18:43;5.85;;;1.70;;
42682;SDS011;28293;50.930;3.464;2022-10-26T14:21:27;7.10;;;1.65;;
42682;SDS011;28293;50.930;3.464;2022-10-26T14:26:22;7.47;;;1.90;;
42682;SDS011;28293;50.930;3.464;2022-10-26T14:28:49;6.15;;;1.60;;
42682;SDS011;28293;50.930;3.464;2022-10-26T14:33:54;8.23;;;1.77;;
42682;SDS011;28293;50.930;3.464;2022-10-26T14:36:31;8.52;;;1.58;;
42682;SDS011;28293;50.930;3.464;2022-10-26T14:39:05;6.47;;;1.80;;
42682;SDS011;28293;50.930;3.464;2022-10-26T14:41:38;8.98;;;2.00;;
42682;SDS011;28293;50.930;3.464;2022-10-26T14:44:04;6.28;;;1.98;;
42682;SDS011;28293;50.930;3.464;2022-10-26T14:46:41;8.15;;;1.70;;
42682;SDS011;28293;50.930;3.464;2022-10-26T14:49:12;5.85;;;1.98;;
42682;SDS011;28293;50.930;3.464;2022-10-26T14:51:46;9.95;;;5.55;;
42682;SDS011;28293;50.930;3.464;2022-10-26T14:54:20;8.50;;;3.72;;
42682;SDS011;28293;50.930;3.464;2022-10-26T14:56:47;6.78;;;1.80;;
42682;SDS011;28293;50.930;3.464;2022-10-26T15:07:06;9.48;;;2.15;;
42682;SDS011;28293;50.930;3.464;2022-10-26T15:09:42;8.90;;;2.25;;
42682;SDS011;28293;50.930;3.464;2022-10-26T15:14:59;10.15;;;2.42;;
42682;SDS011;28293;50.930;3.464;2022-10-26T15:17:33;8.73;;;1.80;;
42682;SDS011;28293;50.930;3.464;2022-10-26T15:20:02;8.93;;;1.88;;
42682;SDS011;28293;50.930;3.464;2022-10-26T15:22:30;8.30;;;1.80;;
42682;SDS011;28293;50.930;3.464;2022-10-26T15:24:56;5.78;;;1.77;;
42682;SDS011;28293;50.930;3.464;2022-10-26T15:27:25;9.40;;;1.92;;
42682;SDS011;28293;50.930;3.464;2022-10-26T15:29:51;9.35;;;1.80;;
42682;SDS011;28293;50.930;3.464;2022-10-26T15:32:35;8.68;;;1.70;;
42682;SDS011;28293;50.930;3.464;2022-10-26T15:37:39;5.05;;;1.45;;
42682;SDS011;28293;50.930;3.464;2022-10-26T15:40:05;8.25;;;2.42;;
42682;SDS011;28293;50.930;3.464;2022-10-26T15:42:31;8.05;;;2.00;;
42682;SDS011;28293;50.930;3.464;2022-10-26T15:44:59;8.63;;;2.25;;
42682;SDS011;28293;50.930;3.464;2022-10-26T15:47:27;6.40;;;2.03;;
42682;SDS011;28293;50.930;3.464;2022-10-26T15:49:56;10.98;;;2.63;;
42682;SDS011;28293;50.930;3.464;2022-10-26T15:52:22;7.15;;;2.33;;
42682;SDS011;28293;50.930;3.464;2022-10-26T15:54:47;8.90;;;2.22;;
42682;SDS011;28293;50.930;3.464;2022-10-26T15:57:13;7.47;;;1.88;;
42682;SDS011;28293;50.930;3.464;2022-10-26T15:59:40;10.27;;;2.10;;
42682;SDS011;28293;50.930;3.464;2022-10-26T16:02:12;7.25;;;1.70;;
42682;SDS011;28293;50.930;3.464;2022-10-26T16:04:38;8.23;;;2.28;;
42682;SDS011;28293;50.930;3.464;2022-10-26T16:07:04;9.93;;;1.60;;
42682;SDS011;28293;50.930;3.464;2022-10-26T16:09:31;7.82;;;2.10;;
42682;SDS011;28293;50.930;3.464;2022-10-26T16:11:57;7.78;;;1.95;;
42682;SDS011;28293;50.930;3.464;2022-10-26T16:14:23;7.93;;;2.17;;
42682;SDS011;28293;50.930;3.464;2022-10-26T16:16:48;8.52;;;2.58;;
42682;SDS011;28293;50.930;3.464;2022-10-26T16:19:14;9.63;;;2.65;;
42682;SDS011;28293;50.930;3.464;2022-10-26T16:21:39;6.95;;;2.22;;
42682;SDS011;28293;50.930;3.464;2022-10-26T16:24:05;6.13;;;2.08;;
42682;SDS011;28293;50.930;3.464;2022-10-26T16:26:31;6.95;;;2.25;;
42682;SDS011;28293;50.930;3.464;2022-10-26T16:28:57;7.88;;;2.72;;
42682;SDS011;28293;50.930;3.464;2022-10-26T16:31:23;6.53;;;2.17;;
42682;SDS011;28293;50.930;3.464;2022-10-26T16:33:48;5.97;;;1.85;;
42682;SDS011;28293;50.930;3.464;2022-10-26T16:36:14;8.15;;;2.33;;
42682;SDS011;28293;50.930;3.464;2022-10-26T16:38:40;9.50;;;2.75;;
42682;SDS011;28293;50.930;3.464;2022-10-26T16:41:07;7.18;;;2.33;;
42682;SDS011;28293;50.930;3.464;2022-10-26T16:43:38;7.63;;;2.17;;
42682;SDS011;28293;50.930;3.464;2022-10-26T16:46:08;4.90;;;2.05;;
42682;SDS011;28293;50.930;3.464;2022-10-26T16:48:40;7.50;;;2.28;;
42682;SDS011;28293;50.930;3.464;2022-10-26T16:51:07;7.35;;;2.45;;
42682;SDS011;28293;50.930;3.464;2022-10-26T16:53:34;8.20;;;2.70;;
42682;SDS011;28293;50.930;3.464;2022-10-26T16:56:01;11.43;;;3.45;;
42682;SDS011;28293;50.930;3.464;2022-10-26T16:58:30;10.35;;;3.38;;
42682;SDS011;28293;50.930;3.464;2022-10-26T17:00:56;7.22;;;2.47;;
42682;SDS011;28293;50.930;3.464;2022-10-26T17:03:22;7.57;;;2.70;;
42682;SDS011;28293;50.930;3.464;2022-10-26T17:05:53;6.22;;;1.80;;
42682;SDS011;28293;50.930;3.464;2022-10-26T17:08:22;8.00;;;2.70;;
42682;SDS011;28293;50.930;3.464;2022-10-26T17:10:47;7.28;;;2.88;;
42682;SDS011;28293;50.930;3.464;2022-10-26T17:13:13;8.07;;;2.90;;
42682;SDS011;28293;50.930;3.464;2022-10-26T17:15:39;10.07;;;2.78;;
42682;SDS011;28293;50.930;3.464;2022-10-26T17:18:04;7.13;;;2.63;;
42682;SDS011;28293;50.930;3.464;2022-10-26T17:20:31;10.35;;;3.13;;
42682;SDS011;28293;50.930;3.464;2022-10-26T17:22:57;9.95;;;3.80;;
42682;SDS011;28293;50.930;3.464;2022-10-26T17:25:22;10.40;;;3.47;;
42682;SDS011;28293;50.930;3.464;2022-10-26T17:27:48;11.90;;;4.05;;
42682;SDS011;28293;50.930;3.464;2022-10-26T17:30:14;10.48;;;3.03;;
42682;SDS011;28293;50.930;3.464;2022-10-26T17:32:39;9.60;;;3.38;;